sensor_id;sensor_type;location;lat;lon;timestamp;P1;durP1;ratioP1;P2;durP2;ratioP2
3000;SDS011;1510;51.072;6.678;2022-12-07T00:00:16;606.20;;;572.43;;
3000;SDS011;1510;51.072;6.678;2022-12-07T00:02:43;629.77;;;592.20;;
3000;SDS011;1510;51.072;6.678;2022-12-07T00:05:10;647.10;;;608.53;;
3000;SDS011;1510;51.072;6.678;2022-12-07T00:07:38;651.20;;;611.30;;
3000;SDS011;1510;51.072;6.678;2022-12-07T00:10:06;620.50;;;584.47;;
3000;SDS011;1510;51.072;6.678;2022-12-07T00:12:33;602.47;;;565.93;;
3000;SDS011;1510;51.072;6.678;2022-12-07T00:14:59;594.47;;;560.13;;
3000;SDS011;1510;51.072;6.678;2022-12-07T00:17:26;592.30;;;557.87;;
3000;SDS011;1510;51.072;6.678;2022-12-07T00:19:53;579.57;;;546.40;;
3000;SDS011;1510;51.072;6.678;2022-12-07T00:22:19;565.77;;;534.67;;
3000;SDS011;1510;51.072;6.678;2022-12-07T00:24:47;560.30;;;531.07;;
3000;SDS011;1510;51.072;6.678;2022-12-07T00:27:14;596.93;;;563.13;;
3000;SDS011;1510;51.072;6.678;2022-12-07T00:29:41;616.17;;;580.30;;
3000;SDS011;1510;51.072;6.678;2022-12-07T00:32:07;612.70;;;576.63;;
3000;SDS011;1510;51.072;6.678;2022-12-07T00:34:34;613.60;;;576.70;;
3000;SDS011;1510;51.072;6.678;2022-12-07T00:37:01;617.33;;;580.27;;
3000;SDS011;1510;51.072;6.678;2022-12-07T00:39:28;622.60;;;586.23;;
3000;SDS011;1510;51.072;6.678;2022-12-07T00:41:56;614.27;;;579.37;;
3000;SDS011;1510;51.072;6.678;2022-12-07T00:44:23;608.10;;;572.90;;
3000;SDS011;1510;51.072;6.678;2022-12-07T00:46:49;598.70;;;563.43;;
3000;SDS011;1510;51.072;6.678;2022-12-07T00:49:16;589.93;;;556.13;;
3000;SDS011;1510;51.072;6.678;2022-12-07T00:51:43;584.30;;;550.10;;
3000;SDS011;1510;51.072;6.678;2022-12-07T00:54:09;551.97;;;521.07;;
3000;SDS011;1510;51.072;6.678;2022-12-07T00:56:37;551.27;;;520.77;;
3000;SDS011;1510;51.072;6.678;2022-12-07T00:59:05;563.17;;;532.07;;
3000;SDS011;1510;51.072;6.678;2022-12-07T01:01:33;558.27;;;526.83;;
3000;SDS011;1510;51.072;6.678;2022-12-07T01:04:02;565.20;;;532.50;;
3000;SDS011;1510;51.072;6.678;2022-12-07T01:06:29;557.77;;;524.37;;
3000;SDS011;1510;51.072;6.678;2022-12-07T01:08:56;551.07;;;520.17;;
3000;SDS011;1510;51.072;6.678;2022-12-07T01:11:23;558.10;;;525.43;;
3000;SDS011;1510;51.072;6.678;2022-12-07T01:13:52;558.10;;;526.20;;
3000;SDS011;1510;51.072;6.678;2022-12-07T01:16:22;541.23;;;511.67;;
3000;SDS011;1510;51.072;6.678;2022-12-07T01:18:52;563.83;;;531.67;;
3000;SDS011;1510;51.072;6.678;2022-12-07T01:21:20;560.47;;;528.87;;
3000;SDS011;1510;51.072;6.678;2022-12-07T01:23:49;569.63;;;537.00;;
3000;SDS011;1510;51.072;6.678;2022-12-07T01:26:16;553.37;;;523.03;;
3000;SDS011;1510;51.072;6.678;2022-12-07T01:28:45;566.03;;;533.87;;
3000;SDS011;1510;51.072;6.678;2022-12-07T01:31:13;563.20;;;531.30;;
3000;SDS011;1510;51.072;6.678;2022-12-07T01:33:43;576.63;;;544.20;;
3000;SDS011;1510;51.072;6.678;2022-12-07T01:36:13;575.47;;;542.57;;
3000;SDS011;1510;51.072;6.678;2022-12-07T01:38:41;584.70;;;550.87;;
3000;SDS011;1510;51.072;6.678;2022-12-07T01:41:08;582.97;;;548.77;;
3000;SDS011;1510;51.072;6.678;2022-12-07T01:43:35;590.20;;;555.67;;
3000;SDS011;1510;51.072;6.678;2022-12-07T01:46:02;590.10;;;555.00;;
3000;SDS011;1510;51.072;6.678;2022-12-07T01:48:31;597.07;;;561.03;;
3000;SDS011;1510;51.072;6.678;2022-12-07T01:51:03;568.03;;;535.93;;
3000;SDS011;1510;51.072;6.678;2022-12-07T01:53:34;576.37;;;541.87;;
3000;SDS011;1510;51.072;6.678;2022-12-07T01:56:04;584.23;;;549.07;;
3000;SDS011;1510;51.072;6.678;2022-12-07T01:58:33;576.70;;;543.30;;
3000;SDS011;1510;51.072;6.678;2022-12-07T02:01:00;557.17;;;524.07;;
3000;SDS011;1510;51.072;6.678;2022-12-07T02:03:29;551.23;;;519.13;;
3000;SDS011;1510;51.072;6.678;2022-12-07T02:05:58;567.77;;;534.77;;
3000;SDS011;1510;51.072;6.678;2022-12-07T02:08:27;574.87;;;541.40;;
3000;SDS011;1510;51.072;6.678;2022-12-07T02:10:54;561.03;;;529.27;;
3000;SDS011;1510;51.072;6.678;2022-12-07T02:13:21;579.63;;;544.67;;
3000;SDS011;1510;51.072;6.678;2022-12-07T02:15:59;581.47;;;545.87;;
3000;SDS011;1510;51.072;6.678;2022-12-07T02:18:38;592.03;;;556.80;;
3000;SDS011;1510;51.072;6.678;2022-12-07T02:21:19;591.43;;;554.37;;
3000;SDS011;1510;51.072;6.678;2022-12-07T02:24:03;572.57;;;539.23;;
3000;SDS011;1510;51.072;6.678;2022-12-07T02:26:53;576.23;;;541.83;;
3000;SDS011;1510;51.072;6.678;2022-12-07T02:29:38;588.30;;;553.47;;
3000;SDS011;1510;51.072;6.678;2022-12-07T02:32:13;591.47;;;554.90;;
3000;SDS011;1510;51.072;6.678;2022-12-07T02:34:47;581.33;;;547.23;;
3000;SDS011;1510;51.072;6.678;2022-12-07T02:37:21;584.37;;;550.43;;
3000;SDS011;1510;51.072;6.678;2022-12-07T02:40:00;590.47;;;554.97;;
3000;SDS011;1510;51.072;6.678;2022-12-07T02:42:33;585.77;;;549.97;;
3000;SDS011;1510;51.072;6.678;2022-12-07T02:45:09;590.63;;;555.67;;
3000;SDS011;1510;51.072;6.678;2022-12-07T02:47:37;593.87;;;557.73;;
3000;SDS011;1510;51.072;6.678;2022-12-07T02:50:07;589.67;;;553.73;;
3000;SDS011;1510;51.072;6.678;2022-12-07T02:52:34;575.57;;;541.87;;
3000;SDS011;1510;51.072;6.678;2022-12-07T02:55:01;568.70;;;535.47;;
3000;SDS011;1510;51.072;6.678;2022-12-07T02:57:36;577.87;;;542.97;;
3000;SDS011;1510;51.072;6.678;2022-12-07T03:00:19;571.53;;;537.23;;
3000;SDS011;1510;51.072;6.678;2022-12-07T03:02:49;580.67;;;545.47;;
3000;SDS011;1510;51.072;6.678;2022-12-07T03:05:26;594.10;;;557.37;;
3000;SDS011;1510;51.072;6.678;2022-12-07T03:08:04;596.30;;;558.60;;
3000;SDS011;1510;51.072;6.678;2022-12-07T03:10:35;610.03;;;571.97;;
3000;SDS011;1510;51.072;6.678;2022-12-07T03:13:09;610.33;;;571.37;;
3000;SDS011;1510;51.072;6.678;2022-12-07T03:15:41;608.33;;;570.77;;
3000;SDS011;1510;51.072;6.678;2022-12-07T03:18:14;601.07;;;563.80;;
3000;SDS011;1510;51.072;6.678;2022-12-07T03:20:45;609.23;;;570.57;;
3000;SDS011;1510;51.072;6.678;2022-12-07T03:23:14;589.67;;;553.37;;
3000;SDS011;1510;51.072;6.678;2022-12-07T03:25:45;602.53;;;565.57;;
3000;SDS011;1510;51.072;6.678;2022-12-07T03:28:16;603.93;;;566.77;;
3000;SDS011;1510;51.072;6.678;2022-12-07T03:30:49;617.07;;;577.37;;
3000;SDS011;1510;51.072;6.678;2022-12-07T03:33:22;603.50;;;565.50;;
3000;SDS011;1510;51.072;6.678;2022-12-07T03:35:54;623.63;;;583.27;;
3000;SDS011;1510;51.072;6.678;2022-12-07T03:38:25;622.33;;;582.47;;
3000;SDS011;1510;51.072;6.678;2022-12-07T03:40:58;620.93;;;579.93;;
3000;SDS011;1510;51.072;6.678;2022-12-07T03:43:28;633.10;;;592.73;;
3000;SDS011;1510;51.072;6.678;2022-12-07T03:45:59;629.73;;;589.47;;
3000;SDS011;1510;51.072;6.678;2022-12-07T03:48:33;648.37;;;606.90;;
3000;SDS011;1510;51.072;6.678;2022-12-07T03:51:06;639.07;;;596.03;;
3000;SDS011;1510;51.072;6.678;2022-12-07T03:53:39;636.67;;;593.77;;
3000;SDS011;1510;51.072;6.678;2022-12-07T03:56:10;654.03;;;608.97;;
3000;SDS011;1510;51.072;6.678;2022-12-07T03:58:38;670.27;;;624.00;;
3000;SDS011;1510;51.072;6.678;2022-12-07T04:01:08;668.03;;;620.87;;
3000;SDS011;1510;51.072;6.678;2022-12-07T04:03:35;661.87;;;615.43;;
3000;SDS011;1510;51.072;6.678;2022-12-07T04:06:02;685.43;;;638.30;;
3000;SDS011;1510;51.072;6.678;2022-12-07T04:08:29;681.43;;;634.00;;
3000;SDS011;1510;51.072;6.678;2022-12-07T04:10:55;681.97;;;633.50;;
3000;SDS011;1510;51.072;6.678;2022-12-07T04:13:22;669.87;;;622.27;;
3000;SDS011;1510;51.072;6.678;2022-12-07T04:15:49;677.13;;;629.50;;
3000;SDS011;1510;51.072;6.678;2022-12-07T04:18:17;656.43;;;612.17;;
3000;SDS011;1510;51.072;6.678;2022-12-07T04:20:45;661.20;;;615.77;;
3000;SDS011;1510;51.072;6.678;2022-12-07T04:23:12;673.13;;;626.60;;
3000;SDS011;1510;51.072;6.678;2022-12-07T04:25:38;683.77;;;637.00;;
3000;SDS011;1510;51.072;6.678;2022-12-07T04:28:06;693.03;;;644.20;;
3000;SDS011;1510;51.072;6.678;2022-12-07T04:30:32;694.83;;;645.33;;
3000;SDS011;1510;51.072;6.678;2022-12-07T04:32:59;703.17;;;651.60;;
3000;SDS011;1510;51.072;6.678;2022-12-07T04:35:27;704.93;;;653.07;;
3000;SDS011;1510;51.072;6.678;2022-12-07T04:37:54;708.80;;;654.20;;
3000;SDS011;1510;51.072;6.678;2022-12-07T04:40:20;694.90;;;642.03;;
3000;SDS011;1510;51.072;6.678;2022-12-07T04:42:47;691.50;;;640.73;;
3000;SDS011;1510;51.072;6.678;2022-12-07T04:45:14;710.93;;;657.87;;
3000;SDS011;1510;51.072;6.678;2022-12-07T04:47:41;702.50;;;650.37;;
3000;SDS011;1510;51.072;6.678;2022-12-07T04:50:09;697.27;;;646.17;;
3000;SDS011;1510;51.072;6.678;2022-12-07T04:52:37;688.93;;;635.83;;
3000;SDS011;1510;51.072;6.678;2022-12-07T04:55:04;693.07;;;642.70;;
3000;SDS011;1510;51.072;6.678;2022-12-07T04:57:31;691.97;;;642.00;;
3000;SDS011;1510;51.072;6.678;2022-12-07T04:59:58;685.87;;;636.10;;
3000;SDS011;1510;51.072;6.678;2022-12-07T05:02:24;681.87;;;632.80;;
3000;SDS011;1510;51.072;6.678;2022-12-07T05:04:51;673.90;;;625.20;;
3000;SDS011;1510;51.072;6.678;2022-12-07T05:07:18;676.33;;;628.60;;
3000;SDS011;1510;51.072;6.678;2022-12-07T05:09:46;675.17;;;627.87;;
3000;SDS011;1510;51.072;6.678;2022-12-07T05:12:12;646.53;;;601.83;;
3000;SDS011;1510;51.072;6.678;2022-12-07T05:14:39;657.47;;;613.17;;
3000;SDS011;1510;51.072;6.678;2022-12-07T05:17:06;672.63;;;625.13;;
3000;SDS011;1510;51.072;6.678;2022-12-07T05:19:33;658.10;;;610.83;;
3000;SDS011;1510;51.072;6.678;2022-12-07T05:21:59;636.17;;;590.77;;
3000;SDS011;1510;51.072;6.678;2022-12-07T05:24:26;631.10;;;585.73;;
3000;SDS011;1510;51.072;6.678;2022-12-07T05:26:54;637.30;;;591.47;;
3000;SDS011;1510;51.072;6.678;2022-12-07T05:29:24;639.07;;;592.87;;
3000;SDS011;1510;51.072;6.678;2022-12-07T05:31:50;630.03;;;583.83;;
3000;SDS011;1510;51.072;6.678;2022-12-07T05:34:17;638.20;;;591.43;;
3000;SDS011;1510;51.072;6.678;2022-12-07T05:36:44;631.43;;;586.27;;
3000;SDS011;1510;51.072;6.678;2022-12-07T05:39:10;652.97;;;605.80;;
3000;SDS011;1510;51.072;6.678;2022-12-07T05:41:37;647.20;;;599.97;;
3000;SDS011;1510;51.072;6.678;2022-12-07T05:44:23;642.03;;;594.57;;
3000;SDS011;1510;51.072;6.678;2022-12-07T05:46:50;655.47;;;607.37;;
3000;SDS011;1510;51.072;6.678;2022-12-07T05:49:17;648.53;;;599.87;;
3000;SDS011;1510;51.072;6.678;2022-12-07T05:51:43;646.53;;;598.60;;
3000;SDS011;1510;51.072;6.678;2022-12-07T05:54:10;651.43;;;601.97;;
3000;SDS011;1510;51.072;6.678;2022-12-07T05:56:37;643.10;;;595.60;;
3000;SDS011;1510;51.072;6.678;2022-12-07T05:59:07;648.47;;;599.27;;
3000;SDS011;1510;51.072;6.678;2022-12-07T06:01:49;639.43;;;591.13;;
3000;SDS011;1510;51.072;6.678;2022-12-07T06:04:19;632.20;;;583.33;;
3000;SDS011;1510;51.072;6.678;2022-12-07T06:06:46;647.87;;;598.50;;
3000;SDS011;1510;51.072;6.678;2022-12-07T06:09:14;638.90;;;590.60;;
3000;SDS011;1510;51.072;6.678;2022-12-07T06:11:41;629.93;;;581.90;;
3000;SDS011;1510;51.072;6.678;2022-12-07T06:14:27;625.37;;;577.97;;
3000;SDS011;1510;51.072;6.678;2022-12-07T06:16:55;628.00;;;580.30;;
3000;SDS011;1510;51.072;6.678;2022-12-07T06:19:22;636.87;;;589.87;;
3000;SDS011;1510;51.072;6.678;2022-12-07T06:21:49;616.87;;;574.27;;
3000;SDS011;1510;51.072;6.678;2022-12-07T06:24:16;626.40;;;580.33;;
3000;SDS011;1510;51.072;6.678;2022-12-07T06:26:43;633.83;;;587.77;;
3000;SDS011;1510;51.072;6.678;2022-12-07T06:29:11;618.57;;;573.57;;
3000;SDS011;1510;51.072;6.678;2022-12-07T06:31:38;617.30;;;572.30;;
3000;SDS011;1510;51.072;6.678;2022-12-07T06:34:08;610.70;;;567.67;;
3000;SDS011;1510;51.072;6.678;2022-12-07T06:36:36;607.00;;;564.50;;
3000;SDS011;1510;51.072;6.678;2022-12-07T06:39:03;611.43;;;569.27;;
3000;SDS011;1510;51.072;6.678;2022-12-07T06:41:31;611.67;;;568.17;;
3000;SDS011;1510;51.072;6.678;2022-12-07T06:43:58;619.17;;;575.80;;
3000;SDS011;1510;51.072;6.678;2022-12-07T06:46:25;665.37;;;614.03;;
3000;SDS011;1510;51.072;6.678;2022-12-07T06:48:52;664.43;;;611.93;;
3000;SDS011;1510;51.072;6.678;2022-12-07T06:51:20;654.77;;;603.43;;
3000;SDS011;1510;51.072;6.678;2022-12-07T06:53:46;668.07;;;616.00;;
3000;SDS011;1510;51.072;6.678;2022-12-07T06:56:13;672.87;;;621.37;;
3000;SDS011;1510;51.072;6.678;2022-12-07T06:58:40;677.07;;;624.50;;
3000;SDS011;1510;51.072;6.678;2022-12-07T07:01:08;676.97;;;624.17;;
3000;SDS011;1510;51.072;6.678;2022-12-07T07:03:36;678.67;;;625.10;;
3000;SDS011;1510;51.072;6.678;2022-12-07T07:06:03;685.10;;;631.27;;
3000;SDS011;1510;51.072;6.678;2022-12-07T07:08:31;685.40;;;632.50;;
3000;SDS011;1510;51.072;6.678;2022-12-07T07:10:58;679.97;;;626.40;;
3000;SDS011;1510;51.072;6.678;2022-12-07T07:13:25;682.07;;;628.90;;
3000;SDS011;1510;51.072;6.678;2022-12-07T07:15:53;674.27;;;621.00;;
3000;SDS011;1510;51.072;6.678;2022-12-07T07:18:20;681.20;;;628.10;;
3000;SDS011;1510;51.072;6.678;2022-12-07T07:20:54;684.07;;;629.87;;
3000;SDS011;1510;51.072;6.678;2022-12-07T07:23:23;680.17;;;626.77;;
3000;SDS011;1510;51.072;6.678;2022-12-07T07:25:51;687.27;;;633.47;;
3000;SDS011;1510;51.072;6.678;2022-12-07T07:28:18;690.73;;;637.53;;
3000;SDS011;1510;51.072;6.678;2022-12-07T07:30:45;685.67;;;632.50;;
3000;SDS011;1510;51.072;6.678;2022-12-07T07:33:12;685.73;;;632.33;;
3000;SDS011;1510;51.072;6.678;2022-12-07T07:35:39;690.33;;;637.57;;
3000;SDS011;1510;51.072;6.678;2022-12-07T07:38:06;691.10;;;638.27;;
3000;SDS011;1510;51.072;6.678;2022-12-07T07:40:33;692.57;;;639.33;;
3000;SDS011;1510;51.072;6.678;2022-12-07T07:43:02;684.30;;;630.90;;
3000;SDS011;1510;51.072;6.678;2022-12-07T07:45:29;685.50;;;631.83;;
3000;SDS011;1510;51.072;6.678;2022-12-07T07:47:55;681.20;;;627.63;;
3000;SDS011;1510;51.072;6.678;2022-12-07T07:50:22;669.60;;;616.83;;
3000;SDS011;1510;51.072;6.678;2022-12-07T07:52:49;678.53;;;624.50;;
3000;SDS011;1510;51.072;6.678;2022-12-07T07:55:17;689.73;;;634.93;;
3000;SDS011;1510;51.072;6.678;2022-12-07T07:57:44;674.90;;;621.80;;
3000;SDS011;1510;51.072;6.678;2022-12-07T08:00:13;690.10;;;635.80;;
3000;SDS011;1510;51.072;6.678;2022-12-07T08:02:41;679.87;;;628.37;;
3000;SDS011;1510;51.072;6.678;2022-12-07T08:05:11;692.93;;;640.17;;
3000;SDS011;1510;51.072;6.678;2022-12-07T08:07:39;689.70;;;636.80;;
3000;SDS011;1510;51.072;6.678;2022-12-07T08:10:06;689.00;;;636.97;;
3000;SDS011;1510;51.072;6.678;2022-12-07T08:12:38;689.33;;;637.10;;
3000;SDS011;1510;51.072;6.678;2022-12-07T08:15:28;694.17;;;643.10;;
3000;SDS011;1510;51.072;6.678;2022-12-07T08:17:56;681.80;;;631.20;;
3000;SDS011;1510;51.072;6.678;2022-12-07T08:20:23;685.70;;;634.83;;
3000;SDS011;1510;51.072;6.678;2022-12-07T08:22:51;683.70;;;633.57;;
3000;SDS011;1510;51.072;6.678;2022-12-07T08:25:18;677.83;;;628.60;;
3000;SDS011;1510;51.072;6.678;2022-12-07T08:27:49;685.60;;;636.43;;
3000;SDS011;1510;51.072;6.678;2022-12-07T08:30:17;672.17;;;624.67;;
3000;SDS011;1510;51.072;6.678;2022-12-07T08:32:48;677.50;;;628.87;;
3000;SDS011;1510;51.072;6.678;2022-12-07T08:35:15;676.13;;;626.77;;
3000;SDS011;1510;51.072;6.678;2022-12-07T08:37:42;681.10;;;630.35;;
3000;SDS011;1510;51.072;6.678;2022-12-07T08:40:12;667.23;;;617.80;;
3000;SDS011;1510;51.072;6.678;2022-12-07T08:42:48;662.27;;;615.00;;
3000;SDS011;1510;51.072;6.678;2022-12-07T08:45:16;655.00;;;610.50;;
3000;SDS011;1510;51.072;6.678;2022-12-07T08:47:45;640.77;;;597.83;;
3000;SDS011;1510;51.072;6.678;2022-12-07T08:50:18;635.73;;;594.87;;
3000;SDS011;1510;51.072;6.678;2022-12-07T08:52:51;631.17;;;590.67;;
3000;SDS011;1510;51.072;6.678;2022-12-07T08:55:20;610.40;;;573.27;;
3000;SDS011;1510;51.072;6.678;2022-12-07T08:57:50;601.70;;;565.90;;
3000;SDS011;1510;51.072;6.678;2022-12-07T09:00:22;574.63;;;541.00;;
3000;SDS011;1510;51.072;6.678;2022-12-07T09:02:55;561.13;;;527.93;;
3000;SDS011;1510;51.072;6.678;2022-12-07T09:05:23;537.67;;;507.63;;
3000;SDS011;1510;51.072;6.678;2022-12-07T09:07:51;520.90;;;492.10;;
3000;SDS011;1510;51.072;6.678;2022-12-07T09:10:26;509.30;;;481.50;;
3000;SDS011;1510;51.072;6.678;2022-12-07T09:12:53;472.27;;;447.83;;
3000;SDS011;1510;51.072;6.678;2022-12-07T09:15:25;470.57;;;446.33;;
3000;SDS011;1510;51.072;6.678;2022-12-07T09:17:57;452.77;;;429.77;;
3000;SDS011;1510;51.072;6.678;2022-12-07T09:20:31;475.03;;;451.90;;
3000;SDS011;1510;51.072;6.678;2022-12-07T09:23:01;466.00;;;442.57;;
3000;SDS011;1510;51.072;6.678;2022-12-07T09:25:31;446.20;;;423.20;;
3000;SDS011;1510;51.072;6.678;2022-12-07T09:27:58;435.80;;;414.30;;
3000;SDS011;1510;51.072;6.678;2022-12-07T09:30:44;381.13;;;362.90;;
3000;SDS011;1510;51.072;6.678;2022-12-07T09:33:16;319.27;;;304.07;;
3000;SDS011;1510;51.072;6.678;2022-12-07T09:35:50;296.13;;;282.13;;
3000;SDS011;1510;51.072;6.678;2022-12-07T09:38:18;342.73;;;327.10;;
3000;SDS011;1510;51.072;6.678;2022-12-07T09:40:48;330.40;;;314.37;;
3000;SDS011;1510;51.072;6.678;2022-12-07T09:43:22;317.50;;;302.20;;
3000;SDS011;1510;51.072;6.678;2022-12-07T09:46:00;228.20;;;217.77;;
3000;SDS011;1510;51.072;6.678;2022-12-07T09:48:29;249.37;;;237.93;;
3000;SDS011;1510;51.072;6.678;2022-12-07T09:51:00;282.60;;;270.20;;
3000;SDS011;1510;51.072;6.678;2022-12-07T09:53:29;272.23;;;260.73;;
3000;SDS011;1510;51.072;6.678;2022-12-07T09:55:59;250.10;;;239.87;;
3000;SDS011;1510;51.072;6.678;2022-12-07T09:58:30;242.23;;;231.97;;
3000;SDS011;1510;51.072;6.678;2022-12-07T10:01:08;233.87;;;224.07;;
3000;SDS011;1510;51.072;6.678;2022-12-07T10:03:39;228.63;;;219.27;;
3000;SDS011;1510;51.072;6.678;2022-12-07T10:06:17;228.13;;;218.57;;
3000;SDS011;1510;51.072;6.678;2022-12-07T10:08:57;207.70;;;197.90;;
3000;SDS011;1510;51.072;6.678;2022-12-07T10:11:34;183.43;;;175.23;;
3000;SDS011;1510;51.072;6.678;2022-12-07T10:14:21;200.77;;;191.73;;
3000;SDS011;1510;51.072;6.678;2022-12-07T10:16:48;217.53;;;208.33;;
3000;SDS011;1510;51.072;6.678;2022-12-07T10:19:21;171.10;;;163.07;;
3000;SDS011;1510;51.072;6.678;2022-12-07T10:22:02;158.27;;;150.57;;
3000;SDS011;1510;51.072;6.678;2022-12-07T10:24:35;105.73;;;100.47;;
3000;SDS011;1510;51.072;6.678;2022-12-07T10:27:16;91.00;;;86.27;;
3000;SDS011;1510;51.072;6.678;2022-12-07T10:29:49;60.33;;;56.07;;
3000;SDS011;1510;51.072;6.678;2022-12-07T10:32:28;72.57;;;68.30;;
3000;SDS011;1510;51.072;6.678;2022-12-07T10:37:48;40.20;;;37.37;;
3000;SDS011;1510;51.072;6.678;2022-12-07T10:40:28;53.73;;;50.13;;
3000;SDS011;1510;51.072;6.678;2022-12-07T10:43:01;48.37;;;45.33;;
3000;SDS011;1510;51.072;6.678;2022-12-07T10:45:41;91.57;;;86.37;;
3000;SDS011;1510;51.072;6.678;2022-12-07T10:48:40;77.40;;;72.73;;
3000;SDS011;1510;51.072;6.678;2022-12-07T10:51:20;45.03;;;41.93;;
3000;SDS011;1510;51.072;6.678;2022-12-07T10:53:57;48.63;;;44.23;;
3000;SDS011;1510;51.072;6.678;2022-12-07T10:56:42;57.13;;;53.23;;
3000;SDS011;1510;51.072;6.678;2022-12-07T11:02:22;50.43;;;46.93;;
3000;SDS011;1510;51.072;6.678;2022-12-07T11:04:59;59.10;;;55.57;;
3000;SDS011;1510;51.072;6.678;2022-12-07T11:07:39;41.20;;;37.63;;
3000;SDS011;1510;51.072;6.678;2022-12-07T11:10:15;29.70;;;25.20;;
3000;SDS011;1510;51.072;6.678;2022-12-07T11:15:45;30.73;;;24.23;;
3000;SDS011;1510;51.072;6.678;2022-12-07T11:18:22;37.47;;;34.10;;
3000;SDS011;1510;51.072;6.678;2022-12-07T11:20:55;57.77;;;53.93;;
3000;SDS011;1510;51.072;6.678;2022-12-07T11:23:35;70.13;;;65.87;;
3000;SDS011;1510;51.072;6.678;2022-12-07T11:26:14;65.63;;;61.77;;
3000;SDS011;1510;51.072;6.678;2022-12-07T11:29:02;48.90;;;45.33;;
3000;SDS011;1510;51.072;6.678;2022-12-07T11:31:38;63.53;;;58.80;;
3000;SDS011;1510;51.072;6.678;2022-12-07T11:34:19;47.03;;;43.07;;
3000;SDS011;1510;51.072;6.678;2022-12-07T11:36:56;48.20;;;44.20;;
3000;SDS011;1510;51.072;6.678;2022-12-07T11:39:26;49.10;;;45.53;;
3000;SDS011;1510;51.072;6.678;2022-12-07T11:42:01;29.83;;;26.73;;
3000;SDS011;1510;51.072;6.678;2022-12-07T11:44:33;50.70;;;46.23;;
3000;SDS011;1510;51.072;6.678;2022-12-07T11:47:08;38.00;;;30.47;;
3000;SDS011;1510;51.072;6.678;2022-12-07T11:49:40;32.93;;;29.43;;
3000;SDS011;1510;51.072;6.678;2022-12-07T11:52:13;24.07;;;15.57;;
3000;SDS011;1510;51.072;6.678;2022-12-07T11:54:48;24.30;;;12.83;;
3000;SDS011;1510;51.072;6.678;2022-12-07T11:57:19;25.50;;;14.00;;
3000;SDS011;1510;51.072;6.678;2022-12-07T11:59:52;21.60;;;13.73;;
3000;SDS011;1510;51.072;6.678;2022-12-07T12:02:26;27.07;;;13.70;;
3000;SDS011;1510;51.072;6.678;2022-12-07T12:04:58;28.13;;;13.40;;
3000;SDS011;1510;51.072;6.678;2022-12-07T12:07:31;24.83;;;13.23;;
3000;SDS011;1510;51.072;6.678;2022-12-07T12:10:00;17.10;;;10.83;;
3000;SDS011;1510;51.072;6.678;2022-12-07T12:12:42;24.17;;;12.70;;
3000;SDS011;1510;51.072;6.678;2022-12-07T12:15:23;18.23;;;11.40;;
3000;SDS011;1510;51.072;6.678;2022-12-07T12:20:53;16.37;;;8.87;;
3000;SDS011;1510;51.072;6.678;2022-12-07T12:23:25;18.37;;;10.27;;
3000;SDS011;1510;51.072;6.678;2022-12-07T12:26:00;19.20;;;9.67;;
3000;SDS011;1510;51.072;6.678;2022-12-07T12:28:32;22.60;;;9.00;;
3000;SDS011;1510;51.072;6.678;2022-12-07T12:31:05;16.83;;;8.20;;
3000;SDS011;1510;51.072;6.678;2022-12-07T12:33:38;19.10;;;9.27;;
3000;SDS011;1510;51.072;6.678;2022-12-07T12:36:17;13.20;;;7.73;;
3000;SDS011;1510;51.072;6.678;2022-12-07T12:38:49;16.77;;;9.63;;
3000;SDS011;1510;51.072;6.678;2022-12-07T12:44:42;17.23;;;10.90;;
3000;SDS011;1510;51.072;6.678;2022-12-07T12:47:41;20.80;;;9.93;;
3000;SDS011;1510;51.072;6.678;2022-12-07T12:50:20;24.93;;;9.50;;
3000;SDS011;1510;51.072;6.678;2022-12-07T12:52:52;23.27;;;9.17;;
3000;SDS011;1510;51.072;6.678;2022-12-07T12:58:48;19.77;;;11.30;;
3000;SDS011;1510;51.072;6.678;2022-12-07T13:01:39;13.10;;;7.50;;
3000;SDS011;1510;51.072;6.678;2022-12-07T13:10:35;18.03;;;8.10;;
3000;SDS011;1510;51.072;6.678;2022-12-07T13:18:58;17.87;;;9.13;;
3000;SDS011;1510;51.072;6.678;2022-12-07T13:21:43;17.17;;;9.40;;
3000;SDS011;1510;51.072;6.678;2022-12-07T13:24:10;17.80;;;10.47;;
3000;SDS011;1510;51.072;6.678;2022-12-07T13:26:51;19.03;;;9.53;;
3000;SDS011;1510;51.072;6.678;2022-12-07T13:29:22;15.07;;;10.47;;
3000;SDS011;1510;51.072;6.678;2022-12-07T13:31:49;17.07;;;9.33;;
3000;SDS011;1510;51.072;6.678;2022-12-07T13:34:30;15.90;;;10.57;;
3000;SDS011;1510;51.072;6.678;2022-12-07T13:36:58;21.03;;;10.10;;
3000;SDS011;1510;51.072;6.678;2022-12-07T13:39:26;13.30;;;10.60;;
3000;SDS011;1510;51.072;6.678;2022-12-07T13:41:54;18.20;;;9.63;;
3000;SDS011;1510;51.072;6.678;2022-12-07T13:44:22;20.57;;;10.30;;
3000;SDS011;1510;51.072;6.678;2022-12-07T13:46:56;12.63;;;9.30;;
3000;SDS011;1510;51.072;6.678;2022-12-07T13:49:28;18.30;;;8.80;;
3000;SDS011;1510;51.072;6.678;2022-12-07T13:52:06;18.03;;;8.60;;
3000;SDS011;1510;51.072;6.678;2022-12-07T13:54:43;16.53;;;9.50;;
3000;SDS011;1510;51.072;6.678;2022-12-07T13:57:11;24.07;;;9.00;;
3000;SDS011;1510;51.072;6.678;2022-12-07T13:59:38;15.57;;;9.77;;
3000;SDS011;1510;51.072;6.678;2022-12-07T14:02:16;16.70;;;10.97;;
3000;SDS011;1510;51.072;6.678;2022-12-07T14:04:47;19.03;;;10.63;;
3000;SDS011;1510;51.072;6.678;2022-12-07T14:07:19;14.30;;;10.53;;
3000;SDS011;1510;51.072;6.678;2022-12-07T14:09:54;18.33;;;10.73;;
3000;SDS011;1510;51.072;6.678;2022-12-07T14:12:26;14.73;;;10.10;;
3000;SDS011;1510;51.072;6.678;2022-12-07T14:14:54;16.90;;;11.23;;
3000;SDS011;1510;51.072;6.678;2022-12-07T14:17:23;15.33;;;11.33;;
3000;SDS011;1510;51.072;6.678;2022-12-07T14:19:53;22.07;;;13.20;;
3000;SDS011;1510;51.072;6.678;2022-12-07T14:22:22;18.80;;;12.50;;
3000;SDS011;1510;51.072;6.678;2022-12-07T14:24:57;20.70;;;14.20;;
3000;SDS011;1510;51.072;6.678;2022-12-07T14:27:29;18.70;;;16.80;;
3000;SDS011;1510;51.072;6.678;2022-12-07T14:29:58;23.57;;;21.80;;
3000;SDS011;1510;51.072;6.678;2022-12-07T14:32:26;21.60;;;15.87;;
3000;SDS011;1510;51.072;6.678;2022-12-07T14:34:57;15.33;;;12.90;;
3000;SDS011;1510;51.072;6.678;2022-12-07T14:37:25;15.87;;;14.20;;
3000;SDS011;1510;51.072;6.678;2022-12-07T14:39:53;20.70;;;19.30;;
3000;SDS011;1510;51.072;6.678;2022-12-07T14:42:20;39.43;;;37.20;;
3000;SDS011;1510;51.072;6.678;2022-12-07T14:44:51;53.97;;;50.77;;
3000;SDS011;1510;51.072;6.678;2022-12-07T14:47:22;45.67;;;43.30;;
3000;SDS011;1510;51.072;6.678;2022-12-07T14:49:49;31.07;;;29.07;;
3000;SDS011;1510;51.072;6.678;2022-12-07T14:52:19;31.47;;;29.57;;
3000;SDS011;1510;51.072;6.678;2022-12-07T14:54:48;95.50;;;91.63;;
3000;SDS011;1510;51.072;6.678;2022-12-07T14:57:14;223.33;;;215.23;;
3000;SDS011;1510;51.072;6.678;2022-12-07T14:59:41;441.63;;;426.43;;
3000;SDS011;1510;51.072;6.678;2022-12-07T15:02:09;541.77;;;520.40;;
3000;SDS011;1510;51.072;6.678;2022-12-07T15:04:38;552.87;;;530.93;;
3000;SDS011;1510;51.072;6.678;2022-12-07T15:07:06;557.50;;;535.43;;
3000;SDS011;1510;51.072;6.678;2022-12-07T15:09:42;527.13;;;505.83;;
3000;SDS011;1510;51.072;6.678;2022-12-07T15:12:08;523.30;;;503.37;;
3000;SDS011;1510;51.072;6.678;2022-12-07T15:14:35;518.57;;;498.90;;
3000;SDS011;1510;51.072;6.678;2022-12-07T15:17:02;570.10;;;547.13;;
3000;SDS011;1510;51.072;6.678;2022-12-07T15:19:29;598.30;;;573.70;;